Time;durP1;ratioP1;P1;durP2;ratioP2;P2;SDS_P1;SDS_P2;PMS_P1;PMS_P2;Temp;Humidity;BMP_temperature;BMP_pressure;BME280_temperature;BME280_humidity;BME280_pressure;Samples;Min_cycle;Max_cycle;Signal;HPM_P1;HPM_P2
2022/11/26 00:00:14;;;;;;;16.53;8.90;;;16.40;59.50;;;;;;5083827;28;20448;-80
2022/11/26 00:02:42;;;;;;;19.87;8.60;;;16.40;59.60;;;;;;5082514;28;20453;-79
2022/11/26 00:05:10;;;;;;;11.20;8.20;;;16.40;59.50;;;;;;5083957;28;20469;-80
2022/11/26 00:07:40;;;;;;;13.07;8.60;;;16.40;59.70;;;;;;5085976;28;20478;-79
2022/11/26 00:10:13;;;;;;;13.73;8.27;;;16.40;59.60;;;;;;5079827;28;20443;-80
2022/11/26 00:12:42;;;;;;;11.97;8.23;;;16.40;59.60;;;;;;5076189;28;20464;-81
2022/11/26 00:15:14;;;;;;;13.47;9.00;;;16.40;59.60;;;;;;5081313;28;20479;-81
2022/11/26 00:17:43;;;;;;;13.03;8.10;;;16.40;59.60;;;;;;5075258;28;20469;-81
2022/11/26 00:20:11;;;;;;;12.17;8.07;;;16.40;59.70;;;;;;5073198;28;20438;-81
2022/11/26 00:22:41;;;;;;;13.10;7.90;;;16.30;59.50;;;;;;5077482;28;20442;-82
2022/11/26 00:25:18;;;;;;;12.30;8.63;;;16.40;59.60;;;;;;5076262;28;20481;-80
2022/11/26 00:27:46;;;;;;;14.77;8.43;;;16.40;59.60;;;;;;5077271;28;20442;-81
2022/11/26 00:30:18;;;;;;;11.33;8.00;;;16.30;59.50;;;;;;5077183;28;20440;-80
2022/11/26 00:32:47;;;;;;;15.30;8.40;;;16.30;59.50;;;;;;5078089;28;20453;-80
2022/11/26 00:35:15;;;;;;;14.70;9.17;;;16.30;59.50;;;;;;5075231;28;20452;-82
2022/11/26 00:37:46;;;;;;;18.83;8.50;;;16.30;59.50;;;;;;5070968;28;20461;-81
2022/11/26 00:40:19;;;;;;;17.70;8.93;;;16.30;59.40;;;;;;5074495;28;20479;-81
2022/11/26 00:42:47;;;;;;;13.67;8.20;;;16.30;59.40;;;;;;5078756;28;20453;-82
2022/11/26 00:45:17;;;;;;;19.23;9.70;;;16.20;59.50;;;;;;5075194;28;20491;-82
2022/11/26 00:47:45;;;;;;;15.87;9.13;;;16.30;59.50;;;;;;5079069;28;20449;-80
2022/11/26 00:50:17;;;;;;;27.63;9.37;;;16.30;59.50;;;;;;5063565;28;20572;-81
2022/11/26 00:52:47;;;;;;;16.67;9.13;;;16.30;59.30;;;;;;5079440;28;20455;-82
2022/11/26 00:55:23;;;;;;;14.57;8.70;;;16.20;59.40;;;;;;5076234;28;20465;-82
2022/11/26 00:57:52;;;;;;;21.17;9.20;;;16.20;59.30;;;;;;5083737;28;20460;-81
2022/11/26 01:00:21;;;;;;;12.20;8.20;;;16.20;59.40;;;;;;5077778;28;20442;-82
2022/11/26 01:02:49;;;;;;;22.20;12.53;;;16.20;59.40;;;;;;5082312;28;20450;-81
2022/11/26 01:05:17;;;;;;;25.20;14.97;;;16.10;59.30;;;;;;5074783;28;20449;-82
2022/11/26 01:07:45;;;;;;;22.97;13.43;;;16.20;59.40;;;;;;5079796;28;20466;-80
2022/11/26 01:10:19;;;;;;;18.23;11.47;;;16.10;59.10;;;;;;5076277;28;20548;-82
2022/11/26 01:12:47;;;;;;;21.13;11.43;;;16.10;59.30;;;;;;5077283;28;20450;-80
2022/11/26 01:15:15;;;;;;;16.57;10.83;;;16.20;59.40;;;;;;5080501;28;20448;-81
2022/11/26 01:17:42;;;;;;;17.50;10.47;;;16.20;59.20;;;;;;5076363;28;20464;-81
2022/11/26 01:20:21;;;;;;;16.83;11.07;;;16.10;59.30;;;;;;5091032;28;20528;-81
2022/11/26 01:22:52;;;;;;;20.90;10.23;;;16.10;59.10;;;;;;5081459;28;20451;-82
2022/11/26 01:25:22;;;;;;;17.73;9.60;;;16.10;59.20;;;;;;5067177;28;20449;-81
2022/11/26 01:27:50;;;;;;;19.37;10.17;;;16.10;59.20;;;;;;5074722;28;20456;-81
2022/11/26 01:30:20;;;;;;;17.97;9.97;;;16.10;59.40;;;;;;5072241;28;20454;-82
2022/11/26 01:32:48;;;;;;;16.73;10.03;;;16.10;59.10;;;;;;5074826;28;20454;-81
2022/11/26 01:35:16;;;;;;;15.13;10.00;;;16.00;59.20;;;;;;5069735;28;20457;-81
2022/11/26 01:37:44;;;;;;;14.70;9.67;;;16.00;59.20;;;;;;5085670;28;20441;-81
2022/11/26 01:40:32;;;;;;;16.30;9.40;;;16.10;59.30;;;;;;5081661;28;20830;-80
2022/11/26 01:43:03;;;;;;;18.30;8.90;;;16.10;59.80;;;;;;5079555;28;20970;-82
2022/11/26 01:45:31;;;;;;;17.40;10.17;;;16.00;59.20;;;;;;5083947;28;20472;-82
2022/11/26 01:47:59;;;;;;;13.40;9.10;;;16.00;59.10;;;;;;5085337;28;20452;-81
2022/11/26 01:50:55;;;;;;;13.73;8.77;;;16.00;59.10;;;;;;5083510;28;20463;-81
2022/11/26 01:53:37;;;;;;;15.43;9.10;;;16.00;59.00;;;;;;5055889;28;20446;-81
2022/11/26 01:56:12;;;;;;;17.37;9.83;;;16.00;59.10;;;;;;5068277;28;20475;-81
2022/11/26 01:58:42;;;;;;;16.33;9.07;;;16.00;59.10;;;;;;5079451;28;20449;-80
2022/11/26 02:01:10;;;;;;;15.40;9.17;;;15.90;58.80;;;;;;5076984;28;20453;-81
2022/11/26 02:03:41;;;;;;;14.50;8.27;;;15.90;59.10;;;;;;5090814;28;20514;-81
2022/11/26 02:06:10;;;;;;;15.63;8.80;;;15.90;59.00;;;;;;5080179;28;20469;-81
2022/11/26 02:08:38;;;;;;;13.37;8.20;;;15.90;59.10;;;;;;5082233;28;20450;-80
2022/11/26 02:11:14;;;;;;;11.57;8.10;;;15.90;59.10;;;;;;5078199;28;20465;-82
2022/11/26 02:13:42;;;;;;;13.30;8.60;;;15.90;58.90;;;;;;5075950;28;20445;-81
2022/11/26 02:16:12;;;;;;;12.47;7.57;;;15.90;59.10;;;;;;5079329;28;20473;-82
2022/11/26 02:18:42;;;;;;;13.00;8.13;;;15.90;59.10;;;;;;5074495;28;20450;-81
2022/11/26 02:21:12;;;;;;;13.13;8.57;;;15.90;58.90;;;;;;5069421;28;20461;-81
2022/11/26 02:24:23;;;;;;;14.73;8.90;;;15.80;59.00;;;;;;5079566;28;20455;-80
2022/11/26 02:27:07;;;;;;;11.50;7.57;;;15.90;58.90;;;;;;5000835;28;20567;-80
2022/11/26 02:29:49;;;;;;;12.83;6.70;;;15.80;58.70;;;;;;5062841;28;20445;-83
2022/11/26 02:32:18;;;;;;;13.03;7.43;;;15.80;59.00;;;;;;5078107;28;20441;-82
2022/11/26 02:34:48;;;;;;;11.30;7.70;;;15.80;58.90;;;;;;5082428;28;20450;-83
2022/11/26 02:37:18;;;;;;;12.70;7.67;;;15.80;58.80;;;;;;5080724;28;20476;-83
2022/11/26 02:39:46;;;;;;;12.77;7.80;;;15.80;58.80;;;;;;5080056;28;20456;-82
2022/11/26 02:42:33;;;;;;;11.97;7.43;;;15.80;58.90;;;;;;5079678;28;20464;-83
2022/11/26 02:45:04;;;;;;;12.90;7.40;;;15.80;58.70;;;;;;5085482;28;20455;-83
2022/11/26 02:47:32;;;;;;;11.87;7.30;;;15.80;58.80;;;;;;5062346;28;20473;-82
2022/11/26 02:50:01;;;;;;;12.33;7.47;;;15.80;58.80;;;;;;5085143;28;20488;-82
2022/11/26 02:52:29;;;;;;;9.10;6.77;;;15.80;58.70;;;;;;5072423;28;20453;-83
2022/11/26 02:54:58;;;;;;;12.50;7.70;;;15.70;58.70;;;;;;5074951;28;20493;-82
2022/11/26 02:57:27;;;;;;;10.60;7.20;;;15.70;58.60;;;;;;5086398;28;20480;-82
2022/11/26 02:59:55;;;;;;;9.67;6.10;;;15.70;58.70;;;;;;5075804;28;20450;-82
2022/11/26 03:02:26;;;;;;;11.10;6.60;;;15.70;58.70;;;;;;5071983;28;20456;-83
2022/11/26 03:04:55;;;;;;;10.37;6.40;;;15.70;58.70;;;;;;5080502;28;20454;-82
2022/11/26 03:07:23;;;;;;;9.70;6.67;;;15.70;58.40;;;;;;5085305;28;20480;-83
2022/11/26 03:09:52;;;;;;;9.90;6.53;;;15.70;58.70;;;;;;5082550;28;20453;-82
2022/11/26 03:12:20;;;;;;;11.03;6.60;;;15.70;58.70;;;;;;5089030;28;20441;-83
2022/11/26 03:14:49;;;;;;;11.30;6.30;;;15.70;58.60;;;;;;5080175;28;20443;-84
2022/11/26 03:17:18;;;;;;;12.83;6.33;;;15.70;59.20;;;;;;5084943;28;20465;-83
2022/11/26 03:19:48;;;;;;;8.10;5.20;;;15.70;58.50;;;;;;5088081;28;20461;-83
2022/11/26 03:22:16;;;;;;;10.23;6.57;;;15.70;58.50;;;;;;5074443;28;20450;-83
2022/11/26 03:24:44;;;;;;;10.60;6.73;;;15.60;58.40;;;;;;5083786;28;20456;-84
2022/11/26 03:27:12;;;;;;;9.33;6.40;;;15.60;58.50;;;;;;5081228;28;20474;-83
2022/11/26 03:29:41;;;;;;;11.57;6.27;;;15.60;58.70;;;;;;5077972;28;20464;-82
2022/11/26 03:32:09;;;;;;;8.83;5.77;;;15.60;58.60;;;;;;5076457;28;20450;-83
2022/11/26 03:34:37;;;;;;;7.57;5.70;;;15.60;58.60;;;;;;5080219;28;20449;-83
2022/11/26 03:37:07;;;;;;;9.73;5.53;;;15.60;58.60;;;;;;5078966;28;20466;-83
2022/11/26 03:39:35;;;;;;;8.40;5.67;;;15.60;58.60;;;;;;5070628;28;20458;-81
2022/11/26 03:42:03;;;;;;;9.00;5.70;;;15.60;58.50;;;;;;5074766;28;21054;-83
2022/11/26 03:44:32;;;;;;;8.10;5.60;;;15.60;58.50;;;;;;5081068;28;20453;-84
2022/11/26 03:47:00;;;;;;;7.27;5.17;;;15.60;58.40;;;;;;5069969;28;20488;-83
2022/11/26 03:49:28;;;;;;;9.63;5.87;;;15.60;58.50;;;;;;5096696;28;20479;-83
2022/11/26 03:51:55;;;;;;;9.00;5.43;;;15.60;58.50;;;;;;5084295;28;20449;-83
2022/11/26 03:54:25;;;;;;;5.57;4.73;;;15.60;58.20;;;;;;5075817;28;20469;-83
2022/11/26 03:56:53;;;;;;;9.00;5.60;;;15.50;58.40;;;;;;5079657;28;20991;-82
2022/11/26 03:59:21;;;;;;;9.00;5.57;;;15.60;58.40;;;;;;5081883;28;20446;-82
2022/11/26 04:01:49;;;;;;;8.30;5.43;;;15.60;58.40;;;;;;5089314;28;20460;-82
2022/11/26 04:04:17;;;;;;;8.37;5.27;;;15.60;58.40;;;;;;5079302;28;20445;-83
2022/11/26 04:06:45;;;;;;;6.57;4.83;;;15.50;58.40;;;;;;5085964;28;20470;-83
2022/11/26 04:09:13;;;;;;;6.70;5.07;;;15.50;58.40;;;;;;5082935;28;20499;-84
2022/11/26 04:11:42;;;;;;;9.00;5.50;;;15.50;58.40;;;;;;5081855;28;20446;-82
2022/11/26 04:14:11;;;;;;;8.27;5.10;;;15.50;58.40;;;;;;5080304;28;20454;-83
2022/11/26 04:16:38;;;;;;;7.83;4.97;;;15.50;58.50;;;;;;5082650;28;20470;-83
2022/11/26 04:19:07;;;;;;;7.93;5.20;;;15.50;58.20;;;;;;5088529;28;20452;-83
2022/11/26 04:21:35;;;;;;;6.43;4.73;;;15.50;58.50;;;;;;5085576;28;20460;-83
2022/11/26 04:24:03;;;;;;;7.10;5.07;;;15.50;58.40;;;;;;5079300;28;20453;-83
2022/11/26 04:26:31;;;;;;;7.77;4.43;;;15.50;58.40;;;;;;5081367;28;20478;-83
2022/11/26 04:29:01;;;;;;;6.80;4.83;;;15.50;58.30;;;;;;5086301;28;20472;-82
2022/11/26 04:31:29;;;;;;;10.20;5.00;;;15.50;58.30;;;;;;5096090;28;20457;-81
2022/11/26 04:33:57;;;;;;;10.70;5.27;;;15.50;58.30;;;;;;5082195;28;20477;-81
2022/11/26 04:36:26;;;;;;;6.23;4.50;;;15.50;58.40;;;;;;5081400;28;20478;-83
2022/11/26 04:38:54;;;;;;;9.57;4.13;;;15.50;58.30;;;;;;5077719;28;20446;-83
2022/11/26 04:41:21;;;;;;;5.80;4.63;;;15.50;58.40;;;;;;5072849;28;20444;-83
2022/11/26 04:43:49;;;;;;;8.70;5.27;;;15.50;58.30;;;;;;5081053;28;20452;-82
2022/11/26 04:46:18;;;;;;;6.13;4.43;;;15.50;58.60;;;;;;5075536;28;20469;-82
2022/11/26 04:48:46;;;;;;;6.13;4.57;;;15.60;58.60;;;;;;5075169;28;20944;-82
2022/11/26 04:51:14;;;;;;;6.97;4.70;;;15.60;58.50;;;;;;5070285;28;20458;-83
2022/11/26 04:53:42;;;;;;;7.00;4.50;;;15.50;58.30;;;;;;5083493;28;20441;-83
2022/11/26 04:56:10;;;;;;;5.93;4.60;;;15.50;58.50;;;;;;5075830;28;20474;-82
2022/11/26 04:58:38;;;;;;;7.80;4.87;;;15.50;58.60;;;;;;5079456;28;20517;-83
2022/11/26 05:01:05;;;;;;;6.67;4.27;;;15.50;58.50;;;;;;5076100;28;20442;-82
2022/11/26 05:03:35;;;;;;;6.43;4.23;;;15.50;58.60;;;;;;5090431;28;20476;-83
2022/11/26 05:06:03;;;;;;;6.97;4.60;;;15.60;58.70;;;;;;5069890;28;20493;-83
2022/11/26 05:08:31;;;;;;;6.50;4.40;;;15.50;58.50;;;;;;5090568;28;20481;-83
2022/11/26 05:11:00;;;;;;;5.60;4.10;;;15.50;58.60;;;;;;5089790;28;20460;-81
2022/11/26 05:13:28;;;;;;;5.70;4.07;;;15.50;58.80;;;;;;5061549;28;20465;-82
2022/11/26 05:15:56;;;;;;;6.20;4.33;;;15.50;58.80;;;;;;5075556;28;20475;-83
2022/11/26 05:18:24;;;;;;;5.47;4.20;;;15.50;58.90;;;;;;5077223;28;20459;-82
2022/11/26 05:20:53;;;;;;;7.70;4.30;;;15.50;58.80;;;;;;5082149;28;20449;-82
2022/11/26 05:23:22;;;;;;;6.30;4.13;;;15.50;58.70;;;;;;5077117;28;20456;-83
2022/11/26 05:25:50;;;;;;;4.23;3.50;;;15.50;58.80;;;;;;5075295;28;20473;-83
2022/11/26 05:28:18;;;;;;;6.70;4.50;;;15.50;58.70;;;;;;5077859;28;20477;-83
2022/11/26 05:30:46;;;;;;;3.90;3.50;;;15.50;59.00;;;;;;5068438;28;20545;-83
2022/11/26 05:33:14;;;;;;;4.10;3.80;;;15.50;58.80;;;;;;5069499;28;20461;-83
2022/11/26 05:35:42;;;;;;;5.63;4.40;;;15.50;58.80;;;;;;5078491;28;20475;-83
2022/11/26 05:38:11;;;;;;;4.97;3.87;;;15.50;58.90;;;;;;5079073;28;20445;-82
2022/11/26 05:40:39;;;;;;;6.37;4.03;;;15.50;58.80;;;;;;5065194;28;20446;-83
2022/11/26 05:43:07;;;;;;;6.13;3.97;;;15.50;58.80;;;;;;5080687;28;20456;-83
2022/11/26 05:45:35;;;;;;;4.43;3.90;;;15.60;58.90;;;;;;5069745;28;20453;-83
2022/11/26 05:48:04;;;;;;;5.00;4.50;;;15.50;58.90;;;;;;5067890;28;20504;-82
2022/11/26 05:50:32;;;;;;;4.30;3.80;;;15.50;58.90;;;;;;5071989;28;20461;-83
2022/11/26 05:53:00;;;;;;;5.83;3.80;;;15.50;59.00;;;;;;5076218;28;20449;-81
2022/11/26 05:55:30;;;;;;;4.20;3.73;;;15.50;58.90;;;;;;5071277;28;20461;-81
2022/11/26 05:57:58;;;;;;;4.63;3.73;;;15.50;58.90;;;;;;5075641;28;20465;-83
2022/11/26 06:00:26;;;;;;;6.20;4.27;;;15.50;59.10;;;;;;5072170;28;20449;-82
2022/11/26 06:02:54;;;;;;;4.37;3.60;;;15.50;59.20;;;;;;5074799;28;20466;-83
2022/11/26 06:05:22;;;;;;;4.73;3.93;;;15.50;59.10;;;;;;5076069;28;20477;-82
2022/11/26 06:07:51;;;;;;;4.47;3.70;;;15.50;59.00;;;;;;5075092;28;20452;-82
2022/11/26 06:10:19;;;;;;;5.37;4.10;;;15.50;59.00;;;;;;5069192;28;20454;-82
2022/11/26 06:12:49;;;;;;;4.97;4.30;;;15.50;58.90;;;;;;5072987;28;20454;-81
2022/11/26 06:15:17;;;;;;;5.77;4.47;;;15.50;59.00;;;;;;5075477;28;20460;-82
2022/11/26 06:17:44;;;;;;;5.30;4.30;;;15.50;59.10;;;;;;5078816;28;20442;-83
2022/11/26 06:20:12;;;;;;;5.27;3.93;;;15.50;59.20;;;;;;5079525;28;20446;-83
2022/11/26 06:22:41;;;;;;;6.40;4.37;;;15.50;59.10;;;;;;5081407;28;21013;-84
2022/11/26 06:25:11;;;;;;;10.40;4.23;;;15.50;58.90;;;;;;5082023;28;20449;-82
2022/11/26 06:27:38;;;;;;;4.40;3.80;;;15.50;59.10;;;;;;5086397;28;20491;-83
2022/11/26 06:30:10;;;;;;;6.13;4.10;;;15.50;59.20;;;;;;5078414;28;20509;-81
2022/11/26 06:32:37;;;;;;;8.83;4.73;;;15.50;58.90;;;;;;5081344;28;20814;-82
2022/11/26 06:35:06;;;;;;;6.83;4.03;;;15.40;59.30;;;;;;5079791;28;20454;-83
2022/11/26 06:37:34;;;;;;;5.70;4.20;;;15.50;59.20;;;;;;5085483;28;20469;-83
2022/11/26 06:40:03;;;;;;;4.70;3.80;;;15.40;59.20;;;;;;5075734;28;20449;-81
2022/11/26 06:42:31;;;;;;;4.50;4.07;;;15.40;59.10;;;;;;5077927;28;20461;-83
2022/11/26 06:44:59;;;;;;;3.93;3.47;;;15.50;59.20;;;;;;5080628;28;20457;-82
2022/11/26 06:47:28;;;;;;;4.07;3.70;;;15.40;59.70;;;;;;5076298;28;20529;-83
2022/11/26 06:49:56;;;;;;;5.00;3.73;;;15.50;59.20;;;;;;5085380;28;20469;-84
2022/11/26 06:52:24;;;;;;;6.70;4.60;;;15.40;59.00;;;;;;5085212;28;20460;-83
2022/11/26 06:54:53;;;;;;;6.63;4.60;;;15.50;59.00;;;;;;5086619;28;20448;-83
2022/11/26 06:57:21;;;;;;;8.07;4.30;;;15.40;59.10;;;;;;5085134;28;20945;-83
2022/11/26 06:59:49;;;;;;;4.20;3.80;;;15.50;59.20;;;;;;5082641;28;20457;-83
2022/11/26 07:02:17;;;;;;;4.43;4.03;;;15.50;59.30;;;;;;5095213;28;20461;-83
2022/11/26 07:04:47;;;;;;;4.20;3.80;;;15.50;59.20;;;;;;5087820;28;20526;-83
2022/11/26 07:07:15;;;;;;;5.03;4.40;;;15.50;59.10;;;;;;5087312;28;20472;-84
2022/11/26 07:09:43;;;;;;;4.20;3.90;;;15.50;59.10;;;;;;5084130;28;20469;-84
2022/11/26 07:12:11;;;;;;;5.30;3.70;;;15.50;59.10;;;;;;5088792;28;20458;-85
2022/11/26 07:14:39;;;;;;;3.93;3.50;;;15.50;59.00;;;;;;5095496;28;20453;-82
2022/11/26 07:17:08;;;;;;;4.90;3.93;;;15.50;59.20;;;;;;5075862;28;20480;-82
2022/11/26 07:19:36;;;;;;;4.77;3.80;;;15.50;59.20;;;;;;5077867;28;20449;-82
2022/11/26 07:22:05;;;;;;;5.07;4.00;;;15.50;59.00;;;;;;5077429;28;20441;-82
2022/11/26 07:24:33;;;;;;;3.47;3.17;;;15.50;59.20;;;;;;5075863;28;20465;-82
2022/11/26 07:27:02;;;;;;;5.53;3.87;;;15.50;59.20;;;;;;5078797;28;20537;-81
2022/11/26 07:29:30;;;;;;;4.20;3.80;;;15.50;59.20;;;;;;5071642;28;20561;-83
2022/11/26 07:31:58;;;;;;;5.10;4.07;;;15.50;59.30;;;;;;5078374;28;20454;-82
2022/11/26 07:34:27;;;;;;;3.63;3.33;;;15.60;59.30;;;;;;5077189;28;20441;-82
2022/11/26 07:36:55;;;;;;;3.93;3.53;;;15.50;59.20;;;;;;5079393;28;20469;-81
2022/11/26 07:39:26;;;;;;;4.17;3.43;;;15.60;59.30;;;;;;5077464;28;20462;-84
2022/11/26 07:41:55;;;;;;;4.47;3.53;;;15.50;59.30;;;;;;5082608;28;20446;-84
2022/11/26 07:44:23;;;;;;;3.43;3.13;;;15.50;59.30;;;;;;5065374;28;20454;-82
2022/11/26 07:46:51;;;;;;;4.17;3.30;;;15.60;59.40;;;;;;5085539;28;20480;-82
2022/11/26 07:49:19;;;;;;;3.70;3.40;;;15.60;59.50;;;;;;5071357;28;20473;-83
2022/11/26 07:51:47;;;;;;;4.20;3.80;;;15.60;59.60;;;;;;5082689;28;20489;-81
2022/11/26 07:54:15;;;;;;;4.40;3.80;;;15.60;59.50;;;;;;5085231;28;20456;-82
2022/11/26 07:56:45;;;;;;;4.63;4.03;;;15.60;59.50;;;;;;5085558;28;20479;-82
2022/11/26 07:59:13;;;;;;;3.57;3.27;;;15.60;59.60;;;;;;5081092;28;20452;-81
2022/11/26 08:01:41;;;;;;;3.33;3.03;;;15.50;59.60;;;;;;5080988;28;20476;-81
2022/11/26 08:04:09;;;;;;;4.10;3.70;;;15.60;59.60;;;;;;5069999;28;20953;-81
2022/11/26 08:06:37;;;;;;;4.07;3.67;;;15.60;59.70;;;;;;5081087;28;20472;-82
2022/11/26 08:09:06;;;;;;;3.70;3.40;;;15.60;59.60;;;;;;5080240;28;20449;-82
2022/11/26 08:11:34;;;;;;;4.43;3.67;;;15.60;59.80;;;;;;5081527;28;20528;-82
2022/11/26 08:14:05;;;;;;;4.50;3.50;;;15.60;59.80;;;;;;5080773;28;20445;-81
2022/11/26 08:16:34;;;;;;;4.03;3.70;;;15.60;59.70;;;;;;5078591;28;20440;-82
2022/11/26 08:19:04;;;;;;;4.67;3.97;;;15.60;59.70;;;;;;5074695;28;20491;-83
2022/11/26 08:21:32;;;;;;;6.10;4.03;;;15.60;59.70;;;;;;5088252;28;20455;-83
2022/11/26 08:24:02;;;;;;;5.07;3.47;;;15.70;59.80;;;;;;5077880;28;20461;-82
2022/11/26 08:26:30;;;;;;;4.33;3.90;;;15.70;59.80;;;;;;5076891;28;20481;-81
2022/11/26 08:29:07;;;;;;;3.47;3.17;;;15.70;59.90;;;;;;5071884;28;20453;-82
2022/11/26 08:31:35;;;;;;;3.20;3.00;;;15.70;59.90;;;;;;5082375;28;20476;-82
2022/11/26 08:34:12;;;;;;;5.30;3.77;;;15.70;60.00;;;;;;5075163;28;20549;-81
2022/11/26 08:36:40;;;;;;;3.70;3.40;;;15.70;59.90;;;;;;5080927;28;20474;-82
2022/11/26 08:39:09;;;;;;;3.40;3.10;;;15.70;59.90;;;;;;5082033;28;20476;-83
2022/11/26 08:41:38;;;;;;;5.50;4.40;;;15.70;60.00;;;;;;5084680;28;20447;-82
2022/11/26 08:44:08;;;;;;;4.00;3.70;;;15.70;60.00;;;;;;5079195;28;20445;-82
2022/11/26 08:46:37;;;;;;;4.33;3.93;;;15.80;60.00;;;;;;5083027;28;21021;-82
2022/11/26 08:49:05;;;;;;;4.37;3.70;;;15.80;60.10;;;;;;5094213;28;20497;-82
2022/11/26 08:51:33;;;;;;;3.80;3.50;;;15.80;60.00;;;;;;5084872;28;20474;-82
2022/11/26 08:54:01;;;;;;;4.83;3.57;;;15.80;60.20;;;;;;5085928;28;20437;-82
2022/11/26 08:56:29;;;;;;;3.80;3.50;;;15.80;60.20;;;;;;5082710;28;20473;-83
2022/11/26 08:58:58;;;;;;;3.10;2.90;;;15.80;60.10;;;;;;5079528;28;20480;-82
2022/11/26 09:01:28;;;;;;;5.20;4.20;;;15.90;60.20;;;;;;5081971;28;20430;-82
2022/11/26 09:03:57;;;;;;;3.83;3.53;;;15.90;60.10;;;;;;5090686;28;20422;-82
2022/11/26 09:06:25;;;;;;;3.53;3.23;;;15.90;60.20;;;;;;5083987;28;20571;-81
2022/11/26 09:11:40;;;;;;;4.40;4.00;;;15.90;60.30;;;;;;5105063;28;20469;-82
2022/11/26 09:14:08;;;;;;;3.40;3.20;;;16.00;60.20;;;;;;5103783;28;20433;-82
2022/11/26 09:16:37;;;;;;;3.93;3.60;;;16.00;60.40;;;;;;5089490;28;20465;-81
2022/11/26 09:19:06;;;;;;;3.80;3.50;;;16.00;60.40;;;;;;5085022;28;20978;-82
2022/11/26 09:21:34;;;;;;;4.43;3.40;;;16.00;60.30;;;;;;5087501;28;20437;-80
2022/11/26 09:24:02;;;;;;;4.37;3.97;;;16.00;60.50;;;;;;5083397;28;20461;-82
2022/11/26 09:26:30;;;;;;;5.63;4.07;;;16.00;60.50;;;;;;5083274;28;20457;-82
2022/11/26 09:28:58;;;;;;;3.90;3.60;;;16.00;60.50;;;;;;5083388;28;20450;-82
2022/11/26 09:31:26;;;;;;;8.53;3.57;;;16.00;60.40;;;;;;5082529;28;20477;-82
2022/11/26 09:33:56;;;;;;;4.40;3.40;;;16.00;60.40;;;;;;5079315;28;20458;-82
2022/11/26 09:36:24;;;;;;;4.90;4.17;;;16.10;60.60;;;;;;5080101;28;20473;-81
2022/11/26 09:38:54;;;;;;;3.83;3.57;;;16.10;60.60;;;;;;5080106;28;20452;-82
2022/11/26 09:41:30;;;;;;;3.80;3.50;;;16.10;60.60;;;;;;5080047;28;20438;-81
2022/11/26 09:44:08;;;;;;;3.83;3.53;;;16.10;60.70;;;;;;5081940;28;20460;-82
2022/11/26 09:46:39;;;;;;;3.27;3.07;;;16.20;60.70;;;;;;5083317;28;20465;-81
2022/11/26 09:49:29;;;;;;;3.43;3.20;;;16.10;60.60;;;;;;5082218;28;20433;-81
2022/11/26 09:51:57;;;;;;;3.93;3.63;;;16.10;60.90;;;;;;5082717;28;20470;-80
2022/11/26 09:54:28;;;;;;;4.50;3.70;;;16.10;60.90;;;;;;5094549;28;20437;-80
2022/11/26 09:56:59;;;;;;;6.10;3.90;;;16.20;61.00;;;;;;5091621;28;20468;-81
2022/11/26 09:59:27;;;;;;;3.97;3.43;;;16.20;60.90;;;;;;5082250;28;20457;-82
2022/11/26 10:01:55;;;;;;;5.03;4.00;;;16.30;61.00;;;;;;5082688;28;20449;-83
2022/11/26 10:04:24;;;;;;;4.27;3.87;;;16.30;60.80;;;;;;5090192;28;20456;-83
2022/11/26 10:06:56;;;;;;;3.60;3.30;;;16.30;61.00;;;;;;5080690;28;20472;-83
2022/11/26 10:09:43;;;;;;;8.57;4.13;;;16.30;61.00;;;;;;5080821;28;20505;-82
2022/11/26 10:12:15;;;;;;;4.03;3.73;;;16.30;61.10;;;;;;5068246;28;20465;-79
2022/11/26 10:14:58;;;;;;;5.13;3.70;;;16.30;61.00;;;;;;5088072;28;20479;-80
2022/11/26 10:17:30;;;;;;;4.63;4.20;;;16.30;61.30;;;;;;5082041;28;20465;-81
2022/11/26 10:20:16;;;;;;;4.50;4.13;;;16.30;61.10;;;;;;5066133;28;20458;-81
2022/11/26 10:22:49;;;;;;;5.70;4.77;;;16.40;61.30;;;;;;5087618;28;20451;-81
2022/11/26 10:25:26;;;;;;;6.73;5.23;;;16.30;61.00;;;;;;5098783;28;20463;-82
2022/11/26 10:27:55;;;;;;;6.60;5.10;;;16.40;61.10;;;;;;5090368;28;20449;-82
2022/11/26 10:30:24;;;;;;;6.20;5.33;;;16.40;61.20;;;;;;5093569;28;20448;-83
2022/11/26 10:32:52;;;;;;;5.90;5.13;;;16.40;60.90;;;;;;5091035;28;20536;-82
2022/11/26 10:35:22;;;;;;;7.10;5.50;;;16.50;61.10;;;;;;5091339;28;20449;-82
2022/11/26 10:37:51;;;;;;;7.20;5.27;;;16.40;60.90;;;;;;5082896;28;20528;-83
2022/11/26 10:40:23;;;;;;;7.13;5.37;;;16.40;61.00;;;;;;5081613;28;20952;-81
2022/11/26 10:43:00;;;;;;;19.93;11.30;;;16.50;60.90;;;;;;5085954;28;20536;-84
2022/11/26 10:45:36;;;;;;;23.93;13.20;;;15.80;61.80;;;;;;5091338;28;20453;-84
2022/11/26 10:48:22;;;;;;;23.07;13.43;;;15.10;64.70;;;;;;5090796;28;20459;-84
2022/11/26 10:51:01;;;;;;;25.23;14.60;;;15.20;66.50;;;;;;5067802;28;20476;-85
2022/11/26 10:53:32;;;;;;;29.67;15.43;;;15.50;66.70;;;;;;5079339;28;20451;-84
2022/11/26 10:56:00;;;;;;;29.20;15.50;;;15.70;64.10;;;;;;5080273;28;20475;-83
2022/11/26 10:58:29;;;;;;;32.37;15.77;;;15.80;64.30;;;;;;5088222;28;20450;-85
2022/11/26 11:00:59;;;;;;;27.63;15.17;;;16.00;64.60;;;;;;5091448;28;20445;-83
2022/11/26 11:03:29;;;;;;;26.20;14.93;;;16.00;64.50;;;;;;5093554;28;20452;-85
2022/11/26 11:06:28;;;;;;;31.57;15.90;;;16.10;65.50;;;;;;5091214;28;20476;-83
2022/11/26 11:08:57;;;;;;;26.43;15.33;;;16.00;64.90;;;;;;5095685;28;20447;-86
2022/11/26 11:11:26;;;;;;;32.80;17.03;;;16.10;64.70;;;;;;5081423;28;20482;-85
2022/11/26 11:13:54;;;;;;;26.97;16.27;;;15.80;63.90;;;;;;5082234;28;20461;-86
2022/11/26 11:16:26;;;;;;;30.90;16.83;;;15.70;64.80;;;;;;5072803;28;20484;-86
2022/11/26 11:18:55;;;;;;;27.37;16.07;;;15.80;65.70;;;;;;5088321;28;20448;-88
2022/11/26 11:21:25;;;;;;;31.23;17.43;;;16.00;65.70;;;;;;5094519;28;20541;-86
2022/11/26 11:23:53;;;;;;;30.17;16.37;;;15.80;64.70;;;;;;5083763;28;20460;-85
2022/11/26 11:26:44;;;;;;;28.13;16.87;;;15.80;64.80;;;;;;5089002;28;20497;-85
2022/11/26 11:29:26;;;;;;;36.17;18.23;;;15.80;65.00;;;;;;5093217;28;20441;-87
2022/11/26 11:31:55;;;;;;;35.23;18.43;;;15.60;64.80;;;;;;5076492;28;20468;-85
2022/11/26 11:34:33;;;;;;;30.40;17.23;;;15.70;66.00;;;;;;5088053;28;20499;-87
2022/11/26 11:37:02;;;;;;;28.47;16.43;;;15.80;65.30;;;;;;5073184;28;20487;-84
2022/11/26 11:39:30;;;;;;;33.40;17.70;;;15.80;64.30;;;;;;5090515;28;20450;-84
2022/11/26 11:42:01;;;;;;;31.07;16.10;;;16.00;64.70;;;;;;5084930;28;20438;-81
2022/11/26 11:44:36;;;;;;;36.50;17.90;;;15.90;63.70;;;;;;5073502;28;20449;-84
2022/11/26 11:47:15;;;;;;;38.00;17.40;;;15.80;65.00;;;;;;5076911;28;20484;-86
2022/11/26 11:49:57;;;;;;;31.63;16.60;;;15.80;64.10;;;;;;5079172;28;21013;-85
2022/11/26 11:52:36;;;;;;;30.60;15.50;;;15.60;63.90;;;;;;5075084;28;20561;-83
2022/11/26 11:55:13;;;;;;;31.63;17.30;;;15.80;62.80;;;;;;5074671;28;20852;-84
2022/11/26 11:58:08;;;;;;;31.63;16.67;;;15.70;62.70;;;;;;5080812;28;20484;-84
2022/11/26 12:00:40;;;;;;;28.37;17.20;;;15.80;63.30;;;;;;5074295;28;20456;-84
2022/11/26 12:03:42;;;;;;;34.27;16.67;;;15.70;62.70;;;;;;5072830;28;20552;-82
2022/11/26 12:06:17;;;;;;;29.33;17.20;;;15.70;65.80;;;;;;5087297;28;20483;-82
2022/11/26 12:08:51;;;;;;;33.53;18.37;;;15.80;64.90;;;;;;5089439;28;20458;-82
2022/11/26 12:11:27;;;;;;;32.50;17.00;;;15.90;64.40;;;;;;5079935;28;20463;-83
2022/11/26 12:13:58;;;;;;;34.10;16.70;;;15.80;64.10;;;;;;5086399;28;20452;-82
2022/11/26 12:16:28;;;;;;;31.50;16.83;;;15.70;64.90;;;;;;5082851;28;20489;-84
2022/11/26 12:18:59;;;;;;;27.90;13.20;;;15.80;65.00;;;;;;5075330;28;20509;-82
2022/11/26 12:21:30;;;;;;;27.77;15.00;;;15.90;66.60;;;;;;5073037;28;20457;-82
2022/11/26 12:24:02;;;;;;;30.80;16.63;;;16.10;63.80;;;;;;5086084;28;20453;-82
2022/11/26 12:26:30;;;;;;;33.67;17.77;;;15.90;62.80;;;;;;5085879;28;20481;-82
2022/11/26 12:29:02;;;;;;;32.13;16.57;;;15.70;63.20;;;;;;5081027;28;20453;-82
2022/11/26 12:31:32;;;;;;;29.73;16.23;;;15.60;62.30;;;;;;5083693;28;20453;-84
2022/11/26 12:34:02;;;;;;;33.10;16.83;;;15.60;62.30;;;;;;5086793;28;20457;-82
2022/11/26 12:36:40;;;;;;;31.43;17.27;;;15.40;61.90;;;;;;5082013;28;20542;-84
2022/11/26 12:39:17;;;;;;;33.20;15.87;;;15.50;62.50;;;;;;5086154;28;20446;-84
2022/11/26 12:41:49;;;;;;;31.33;17.70;;;15.60;62.00;;;;;;5080732;28;20448;-83
2022/11/26 12:44:20;;;;;;;31.80;16.57;;;15.60;61.60;;;;;;5080534;28;20473;-84
2022/11/26 12:46:52;;;;;;;37.07;17.80;;;15.60;61.70;;;;;;5087663;28;20476;-84
2022/11/26 12:49:24;;;;;;;35.67;17.53;;;15.60;61.90;;;;;;5090096;28;20446;-82
2022/11/26 12:51:57;;;;;;;27.27;15.73;;;15.40;61.90;;;;;;5072474;28;20481;-85
2022/11/26 12:54:28;;;;;;;30.90;14.23;;;15.60;67.30;;;;;;5077323;28;20464;-84
2022/11/26 12:56:58;;;;;;;33.83;16.13;;;15.80;66.50;;;;;;5078307;28;21009;-82
2022/11/26 12:59:31;;;;;;;31.20;16.57;;;15.70;64.30;;;;;;5085257;28;20453;-82